Time;durP1;ratioP1;P1;durP2;ratioP2;P2;SDS_P1;SDS_P2;PMS_P1;PMS_P2;Temp;Humidity;BMP_temperature;BMP_pressure;BME280_temperature;BME280_humidity;BME280_pressure;Samples;Min_cycle;Max_cycle;Signal;HPM_P1;HPM_P2
2023/05/26 00:02:02;;;;;;;38.83;6.60;;;7.70;92.50;;;;;;5045591;28;20025;-69
2023/05/26 00:04:27;;;;;;;28.05;5.78;;;7.60;92.60;;;;;;5048489;28;20028;-68
2023/05/26 00:06:54;;;;;;;30.27;5.70;;;7.60;92.80;;;;;;5046282;28;20036;-70
2023/05/26 00:09:20;;;;;;;34.38;5.25;;;7.50;93.00;;;;;;5045604;28;20091;-69
2023/05/26 00:11:46;;;;;;;32.42;6.05;;;7.60;93.00;;;;;;5052385;28;20033;-69
2023/05/26 00:14:14;;;;;;;34.88;5.82;;;7.60;93.20;;;;;;5053557;28;20076;-69
2023/05/26 00:16:45;;;;;;;39.42;7.65;;;7.60;93.00;;;;;;5048506;28;20162;-70
2023/05/26 00:19:12;;;;;;;37.47;6.00;;;7.60;93.10;;;;;;5049589;28;20683;-70
2023/05/26 00:21:39;;;;;;;29.08;5.50;;;7.50;93.20;;;;;;5049021;28;20029;-69
2023/05/26 00:24:05;;;;;;;33.42;6.25;;;7.50;92.80;;;;;;5049334;28;20028;-69
2023/05/26 00:26:31;;;;;;;40.10;5.90;;;7.40;92.80;;;;;;5046054;28;20134;-70
2023/05/26 00:28:56;;;;;;;26.60;6.00;;;7.30;92.70;;;;;;5039444;28;20214;-69
2023/05/26 00:31:22;;;;;;;33.97;6.10;;;7.30;92.80;;;;;;5046802;28;20044;-69
2023/05/26 00:33:47;;;;;;;32.90;5.40;;;7.20;92.90;;;;;;5037885;28;20025;-69
2023/05/26 00:36:13;;;;;;;30.52;6.15;;;7.10;92.90;;;;;;5048785;28;20033;-69
2023/05/26 00:38:38;;;;;;;31.38;5.28;;;7.10;93.20;;;;;;5047385;28;20400;-69
2023/05/26 00:41:04;;;;;;;30.65;6.00;;;7.10;93.20;;;;;;5049631;28;20041;-69
2023/05/26 00:43:29;;;;;;;31.35;5.57;;;7.00;93.30;;;;;;5049478;28;20029;-70
2023/05/26 00:45:55;;;;;;;28.17;5.32;;;7.00;93.30;;;;;;5052269;28;20029;-69
2023/05/26 00:48:21;;;;;;;35.65;5.22;;;6.90;93.30;;;;;;5049280;28;20017;-69
2023/05/26 00:50:47;;;;;;;34.22;6.57;;;6.90;93.50;;;;;;5041973;28;20484;-69
2023/05/26 00:53:13;;;;;;;26.35;5.40;;;6.80;93.30;;;;;;5049174;28;20040;-71
2023/05/26 00:55:39;;;;;;;41.15;5.72;;;6.80;93.40;;;;;;5049559;28;20064;-69
2023/05/26 00:58:05;;;;;;;23.52;5.80;;;6.80;93.50;;;;;;5047155;28;20461;-69
2023/05/26 01:00:31;;;;;;;27.73;5.25;;;6.80;93.50;;;;;;5045274;28;20159;-69
2023/05/26 01:02:58;;;;;;;35.15;6.13;;;6.70;93.60;;;;;;5045868;28;20029;-69
2023/05/26 01:05:24;;;;;;;30.95;5.93;;;6.60;93.40;;;;;;5046768;28;20032;-69
2023/05/26 01:07:50;;;;;;;28.83;6.10;;;6.60;93.50;;;;;;5044530;28;20016;-69
2023/05/26 01:10:16;;;;;;;31.60;5.63;;;6.60;93.60;;;;;;5047470;28;20064;-68
2023/05/26 01:12:49;;;;;;;30.08;5.60;;;6.50;93.60;;;;;;5048280;28;20029;-69
2023/05/26 01:15:29;;;;;;;25.95;5.20;;;6.50;93.60;;;;;;5049115;28;20493;-69
2023/05/26 01:18:16;;;;;;;28.05;5.70;;;6.40;94.00;;;;;;5048619;28;20103;-69
2023/05/26 01:20:53;;;;;;;28.95;5.10;;;6.40;93.90;;;;;;5045326;28;20025;-70
2023/05/26 01:23:52;;;;;;;33.10;5.82;;;6.40;94.00;;;;;;5038255;28;20104;-69
2023/05/26 01:26:33;;;;;;;31.17;5.13;;;6.30;93.90;;;;;;5042796;28;20183;-69
2023/05/26 01:29:02;;;;;;;33.83;6.00;;;6.20;94.10;;;;;;5040336;28;20025;-70
2023/05/26 01:31:28;;;;;;;31.90;6.22;;;6.20;94.20;;;;;;5044986;28;20041;-69
2023/05/26 01:33:54;;;;;;;27.77;5.40;;;6.20;94.30;;;;;;5041529;28;20511;-71
2023/05/26 01:36:20;;;;;;;31.50;5.88;;;6.10;94.30;;;;;;5049670;28;20450;-70
2023/05/26 01:38:45;;;;;;;26.35;5.05;;;6.10;94.20;;;;;;5051090;28;20033;-69
2023/05/26 01:41:33;;;;;;;36.88;6.38;;;6.10;94.30;;;;;;5045178;28;20028;-69
2023/05/26 01:44:09;;;;;;;30.55;5.75;;;6.10;94.30;;;;;;5060660;28;20036;-70
2023/05/26 01:46:41;;;;;;;34.20;6.00;;;6.10;94.30;;;;;;5049010;28;20025;-68
2023/05/26 01:49:09;;;;;;;32.25;5.90;;;6.00;94.30;;;;;;5044789;28;20163;-69
2023/05/26 01:51:38;;;;;;;36.40;6.05;;;6.00;94.40;;;;;;5042603;28;20056;-69
2023/05/26 01:54:08;;;;;;;39.20;5.40;;;5.90;94.40;;;;;;5046272;28;20517;-68
2023/05/26 01:56:35;;;;;;;39.33;6.03;;;5.90;94.50;;;;;;5047099;28;20040;-69
2023/05/26 01:59:01;;;;;;;36.55;5.35;;;6.00;94.60;;;;;;5047746;28;20175;-69
2023/05/26 02:01:27;;;;;;;37.70;6.20;;;5.90;94.50;;;;;;5041601;28;20040;-69
2023/05/26 02:03:54;;;;;;;31.13;6.22;;;5.90;94.60;;;;;;5053478;28;20025;-70
2023/05/26 02:06:20;;;;;;;40.00;6.07;;;5.80;94.70;;;;;;5044116;28;20036;-70
2023/05/26 02:08:46;;;;;;;31.77;4.95;;;5.80;94.70;;;;;;5047255;28;20025;-70
2023/05/26 02:11:11;;;;;;;30.55;4.80;;;5.80;94.60;;;;;;5050861;28;20474;-69
2023/05/26 02:13:37;;;;;;;24.65;4.95;;;5.70;94.60;;;;;;5040156;28;20127;-69
2023/05/26 02:16:02;;;;;;;36.97;5.07;;;5.70;94.50;;;;;;5055201;28;20033;-68
2023/05/26 02:18:28;;;;;;;34.15;6.35;;;5.70;94.60;;;;;;5043004;28;20025;-69
2023/05/26 02:20:53;;;;;;;39.25;5.90;;;5.70;94.70;;;;;;5047410;28;20381;-69
2023/05/26 02:23:19;;;;;;;27.67;4.50;;;5.70;94.60;;;;;;5046088;28;20476;-69
2023/05/26 02:25:44;;;;;;;33.83;6.20;;;5.60;94.60;;;;;;5060602;28;20132;-68
2023/05/26 02:28:10;;;;;;;30.88;5.43;;;5.60;94.70;;;;;;5052518;28;20064;-69
2023/05/26 02:30:35;;;;;;;32.35;5.43;;;5.60;94.80;;;;;;5052600;28;20037;-69
2023/05/26 02:33:01;;;;;;;30.83;5.03;;;5.60;94.60;;;;;;5050047;28;20036;-69
2023/05/26 02:35:26;;;;;;;36.40;6.25;;;5.60;94.60;;;;;;5053879;28;20043;-69
2023/05/26 02:37:52;;;;;;;30.80;5.63;;;5.50;94.50;;;;;;5054234;28;20033;-69
2023/05/26 02:40:17;;;;;;;31.52;5.88;;;5.50;94.80;;;;;;5057289;28;20068;-69
2023/05/26 02:42:42;;;;;;;30.60;5.10;;;5.60;94.80;;;;;;5050879;28;20037;-69
2023/05/26 02:45:08;;;;;;;30.23;5.45;;;5.60;94.70;;;;;;5054192;28;20041;-69
2023/05/26 02:47:34;;;;;;;27.15;5.78;;;5.60;94.40;;;;;;5049163;28;20199;-69
2023/05/26 02:49:59;;;;;;;33.72;5.40;;;5.50;94.40;;;;;;5054373;28;20036;-69
2023/05/26 02:52:25;;;;;;;30.98;5.55;;;5.50;94.40;;;;;;5055976;28;20044;-69
2023/05/26 02:54:51;;;;;;;29.10;5.47;;;5.50;94.30;;;;;;5043525;28;20043;-69
2023/05/26 02:57:16;;;;;;;35.35;5.85;;;5.40;94.30;;;;;;5051797;28;20115;-69
2023/05/26 02:59:42;;;;;;;29.35;5.80;;;5.40;94.30;;;;;;5063216;28;20032;-69
2023/05/26 03:02:07;;;;;;;30.88;5.35;;;5.30;94.30;;;;;;5050778;28;20425;-68
2023/05/26 03:04:32;;;;;;;43.65;6.30;;;5.30;94.30;;;;;;5049871;28;20112;-69
2023/05/26 03:06:58;;;;;;;29.55;5.25;;;5.40;94.60;;;;;;5050646;28;20021;-69
2023/05/26 03:09:26;;;;;;;21.77;4.90;;;5.40;94.40;;;;;;5054420;28;20453;-69
2023/05/26 03:11:52;;;;;;;34.72;6.18;;;5.30;94.20;;;;;;5048745;28;20457;-69
2023/05/26 03:14:18;;;;;;;25.73;4.72;;;5.20;94.20;;;;;;5050459;28;20055;-70
2023/05/26 03:16:43;;;;;;;36.80;5.82;;;5.20;94.40;;;;;;5049841;28;20087;-69
2023/05/26 03:19:09;;;;;;;35.50;6.25;;;5.20;94.30;;;;;;5050133;28;20029;-69
2023/05/26 03:21:35;;;;;;;33.63;5.90;;;5.30;94.40;;;;;;5048590;28;20342;-69
2023/05/26 03:24:00;;;;;;;37.40;5.47;;;5.30;94.50;;;;;;5053344;28;20063;-68
2023/05/26 03:26:26;;;;;;;43.60;5.82;;;5.30;94.40;;;;;;5050259;28;20481;-69
2023/05/26 03:28:51;;;;;;;27.90;5.57;;;5.30;94.30;;;;;;5049279;28;20028;-69
2023/05/26 03:31:17;;;;;;;26.33;5.18;;;5.20;94.30;;;;;;5050709;28;20042;-69
2023/05/26 03:33:44;;;;;;;32.65;5.65;;;5.30;94.20;;;;;;5048263;28;20028;-68
2023/05/26 03:36:10;;;;;;;30.35;5.38;;;5.20;94.30;;;;;;5048807;28;20063;-69
2023/05/26 03:38:35;;;;;;;31.85;4.78;;;5.30;94.40;;;;;;5050490;28;20060;-69
2023/05/26 03:41:01;;;;;;;30.38;5.28;;;5.30;94.40;;;;;;5047951;28;20026;-69
2023/05/26 03:43:26;;;;;;;30.77;5.93;;;5.20;94.40;;;;;;5049147;28;20033;-69
2023/05/26 03:45:52;;;;;;;23.83;5.20;;;5.20;94.40;;;;;;5051358;28;20803;-69
2023/05/26 03:48:18;;;;;;;27.95;5.60;;;5.20;94.40;;;;;;5049220;28;20354;-68
2023/05/26 03:50:46;;;;;;;27.33;4.93;;;5.30;94.40;;;;;;5057677;28;20033;-69
2023/05/26 03:53:12;;;;;;;40.08;5.85;;;5.20;94.40;;;;;;5048173;28;20062;-69
2023/05/26 03:55:37;;;;;;;24.13;4.93;;;5.30;94.60;;;;;;5051165;28;20128;-69
2023/05/26 03:58:03;;;;;;;29.13;5.18;;;5.40;94.50;;;;;;5047153;28;20545;-69
2023/05/26 04:00:32;;;;;;;37.13;5.50;;;5.30;94.40;;;;;;5051368;28;20036;-70
2023/05/26 04:02:58;;;;;;;33.28;5.25;;;5.40;94.40;;;;;;5047407;28;20041;-69
2023/05/26 04:05:25;;;;;;;32.45;4.80;;;5.30;94.50;;;;;;5051219;28;20040;-68
2023/05/26 04:07:50;;;;;;;26.95;4.60;;;5.40;94.40;;;;;;5051180;28;20067;-69
2023/05/26 04:10:16;;;;;;;30.70;5.50;;;5.40;94.20;;;;;;5054744;28;20551;-69
2023/05/26 04:12:42;;;;;;;35.25;5.80;;;5.40;94.20;;;;;;5050919;28;20055;-69
2023/05/26 04:15:11;;;;;;;29.35;5.88;;;5.50;94.30;;;;;;5048219;28;20041;-69
2023/05/26 04:17:37;;;;;;;26.13;5.22;;;5.50;94.20;;;;;;5045448;28;20052;-70
2023/05/26 04:20:10;;;;;;;34.70;5.07;;;5.60;94.20;;;;;;5053501;28;20478;-70
2023/05/26 04:22:35;;;;;;;27.25;5.03;;;5.60;94.20;;;;;;5045103;28;20037;-69
2023/05/26 04:25:01;;;;;;;40.53;5.53;;;5.60;94.30;;;;;;5062609;28;20036;-71
2023/05/26 04:27:26;;;;;;;31.15;5.32;;;5.60;94.20;;;;;;5036322;28;20479;-68
2023/05/26 04:29:52;;;;;;;31.75;5.50;;;5.70;94.30;;;;;;5049938;28;20029;-72
2023/05/26 04:32:20;;;;;;;26.13;5.85;;;5.70;94.10;;;;;;5048777;28;20096;-70
2023/05/26 04:34:45;;;;;;;35.47;5.88;;;5.80;94.10;;;;;;5042189;28;20033;-70
2023/05/26 04:37:11;;;;;;;31.92;5.72;;;5.90;94.30;;;;;;5048451;28;20033;-70
2023/05/26 04:39:36;;;;;;;28.88;5.22;;;5.90;94.20;;;;;;5044740;28;20041;-70
2023/05/26 04:42:03;;;;;;;32.38;5.85;;;6.00;94.20;;;;;;5051160;28;20033;-71
2023/05/26 04:44:29;;;;;;;28.52;5.07;;;6.00;94.00;;;;;;5049552;28;20028;-70
2023/05/26 04:46:54;;;;;;;34.50;5.18;;;6.10;94.00;;;;;;5046333;28;20029;-70
2023/05/26 04:49:23;;;;;;;31.13;5.90;;;6.10;93.90;;;;;;5043034;28;20055;-71
2023/05/26 04:51:55;;;;;;;26.88;5.20;;;6.20;94.10;;;;;;5054353;28;20032;-70
2023/05/26 04:54:21;;;;;;;31.58;5.55;;;6.30;94.00;;;;;;5052318;28;20028;-69
2023/05/26 04:56:47;;;;;;;33.50;5.20;;;6.40;93.90;;;;;;5047149;28;20063;-69
2023/05/26 04:59:12;;;;;;;30.58;5.93;;;6.40;93.50;;;;;;5055605;28;20147;-69
2023/05/26 05:01:38;;;;;;;42.30;5.10;;;6.50;93.50;;;;;;5048997;28;20113;-70
2023/05/26 05:04:04;;;;;;;34.35;6.32;;;6.60;93.40;;;;;;5040481;28;20467;-69
2023/05/26 05:06:29;;;;;;;41.65;6.50;;;6.70;93.30;;;;;;5035509;28;20455;-69
2023/05/26 05:08:54;;;;;;;37.20;5.82;;;6.80;92.90;;;;;;5049342;28;20055;-76
2023/05/26 05:11:20;;;;;;;29.90;5.18;;;6.90;93.00;;;;;;5043957;28;20519;-72
2023/05/26 05:13:45;;;;;;;28.40;6.30;;;7.00;93.00;;;;;;5045955;28;20037;-73
2023/05/26 05:16:11;;;;;;;30.50;5.97;;;7.10;93.00;;;;;;5049713;28;20449;-72
2023/05/26 05:18:37;;;;;;;33.20;5.60;;;7.10;93.00;;;;;;5051174;28;20045;-72
2023/05/26 05:21:03;;;;;;;29.42;5.47;;;7.30;92.50;;;;;;5044906;28;20032;-71
2023/05/26 05:23:34;;;;;;;31.70;5.78;;;7.40;92.40;;;;;;5042553;28;20032;-72
2023/05/26 05:25:59;;;;;;;27.27;5.75;;;7.50;92.40;;;;;;5060414;28;20068;-70
2023/05/26 05:28:25;;;;;;;36.97;6.43;;;7.60;92.20;;;;;;5050494;28;20120;-69
2023/05/26 05:30:50;;;;;;;30.90;6.25;;;7.70;91.90;;;;;;5049237;28;20347;-69
2023/05/26 05:33:16;;;;;;;24.63;5.35;;;7.80;91.40;;;;;;5052010;28;20037;-70
2023/05/26 05:35:41;;;;;;;31.25;6.18;;;8.00;91.30;;;;;;5045723;28;20029;-69
2023/05/26 05:38:07;;;;;;;33.83;5.75;;;8.10;90.10;;;;;;5044501;28;20526;-69
2023/05/26 05:40:33;;;;;;;34.15;5.63;;;8.20;90.40;;;;;;5050022;28;20534;-69
2023/05/26 05:43:00;;;;;;;24.70;5.28;;;8.40;90.10;;;;;;5045429;28;20140;-69
2023/05/26 05:45:26;;;;;;;33.33;5.70;;;8.50;89.90;;;;;;5051403;28;20422;-69
2023/05/26 05:47:51;;;;;;;30.48;5.88;;;8.60;89.80;;;;;;5044459;28;20037;-69
2023/05/26 05:50:17;;;;;;;27.27;4.82;;;8.70;89.80;;;;;;5038783;28;20122;-69
2023/05/26 05:52:43;;;;;;;30.45;5.50;;;8.90;88.60;;;;;;5044103;28;20357;-69
2023/05/26 05:55:08;;;;;;;21.23;5.00;;;8.90;88.00;;;;;;5052782;28;20048;-69
2023/05/26 05:57:34;;;;;;;26.05;5.00;;;8.90;86.90;;;;;;5050304;28;20032;-69
2023/05/26 05:59:59;;;;;;;34.50;5.32;;;9.10;86.50;;;;;;5048995;28;20040;-69
2023/05/26 06:02:25;;;;;;;26.15;4.43;;;9.10;85.00;;;;;;5047948;28;20359;-69
2023/05/26 06:04:50;;;;;;;22.38;5.00;;;9.30;85.80;;;;;;5044857;28;20065;-70
2023/05/26 06:07:16;;;;;;;28.27;5.30;;;9.40;84.30;;;;;;5043318;28;20075;-70
2023/05/26 06:09:41;;;;;;;28.13;4.63;;;9.50;83.90;;;;;;5051479;28;20053;-69
2023/05/26 06:12:07;;;;;;;23.05;4.97;;;9.70;84.10;;;;;;5046966;28;20025;-70
2023/05/26 06:14:32;;;;;;;28.67;4.20;;;9.80;83.60;;;;;;5046790;28;20458;-70
2023/05/26 06:16:58;;;;;;;24.92;5.00;;;9.90;83.30;;;;;;5048825;28;20146;-70
2023/05/26 06:19:23;;;;;;;21.55;4.22;;;10.10;83.00;;;;;;5052597;28;20421;-70
2023/05/26 06:21:50;;;;;;;27.48;4.50;;;10.10;82.90;;;;;;5042300;28;20064;-70
2023/05/26 06:24:16;;;;;;;28.88;4.80;;;10.20;82.40;;;;;;5056591;28;20090;-70
2023/05/26 06:26:41;;;;;;;17.95;4.35;;;10.30;81.10;;;;;;5045331;28;20036;-70
2023/05/26 06:29:07;;;;;;;30.58;5.38;;;10.30;81.50;;;;;;5045086;28;20028;-69
2023/05/26 06:31:32;;;;;;;20.95;4.65;;;10.60;80.20;;;;;;5037964;28;20037;-70
2023/05/26 06:33:58;;;;;;;30.27;4.78;;;10.70;79.40;;;;;;5043052;28;20066;-71
2023/05/26 06:36:24;;;;;;;22.45;4.25;;;10.80;77.50;;;;;;5044676;28;20374;-70
2023/05/26 06:38:49;;;;;;;19.45;4.53;;;11.00;78.80;;;;;;5043377;28;20482;-70
2023/05/26 06:41:15;;;;;;;23.98;4.20;;;11.00;79.00;;;;;;5048180;28;20037;-70
2023/05/26 06:43:40;;;;;;;22.52;4.45;;;11.20;78.20;;;;;;5061749;28;20444;-70
2023/05/26 06:46:06;;;;;;;25.92;4.75;;;11.30;77.50;;;;;;5045137;28;20041;-71
2023/05/26 06:48:31;;;;;;;20.45;3.95;;;11.40;76.80;;;;;;5050381;28;20477;-70
2023/05/26 06:50:57;;;;;;;24.15;4.25;;;11.50;76.30;;;;;;5044090;28;20040;-69
2023/05/26 06:53:22;;;;;;;22.17;4.28;;;11.50;75.60;;;;;;5049953;28;20452;-70
2023/05/26 06:55:47;;;;;;;20.48;4.05;;;11.50;74.10;;;;;;5045180;28;20379;-71
2023/05/26 06:58:13;;;;;;;27.30;4.80;;;11.70;73.90;;;;;;5053783;28;20043;-70
2023/05/26 07:00:54;;;;;;;24.15;4.55;;;11.80;75.10;;;;;;5042100;28;20048;-70
2023/05/26 07:03:20;;;;;;;;;;;12.00;75.10;;;;;;5046503;28;20082;-70
2023/05/26 07:05:46;;;;;;;18.55;3.75;;;12.20;75.50;;;;;;5048747;28;19948;-69
2023/05/26 07:08:11;;;;;;;22.73;3.83;;;12.30;73.20;;;;;;5045660;28;20028;-70
2023/05/26 07:10:36;;;;;;;23.35;4.13;;;12.20;72.80;;;;;;5049081;28;20376;-69
2023/05/26 07:13:02;;;;;;;21.98;3.83;;;12.50;73.60;;;;;;5042441;28;20065;-70
2023/05/26 07:15:28;;;;;;;14.77;3.05;;;12.60;72.60;;;;;;5049682;28;20450;-70
2023/05/26 07:17:53;;;;;;;23.45;4.03;;;12.60;71.20;;;;;;5046777;28;20025;-70
2023/05/26 07:20:19;;;;;;;17.38;3.47;;;12.70;70.30;;;;;;5046844;28;20535;-70
2023/05/26 07:22:44;;;;;;;20.08;3.85;;;12.70;70.30;;;;;;5046842;28;20035;-71
2023/05/26 07:25:10;;;;;;;19.92;3.97;;;12.60;67.50;;;;;;5047650;28;20040;-70
2023/05/26 07:27:35;;;;;;;20.83;3.85;;;12.60;70.20;;;;;;5047484;28;20045;-71
2023/05/26 07:30:01;;;;;;;18.13;3.70;;;13.00;70.00;;;;;;5045024;28;20017;-70
2023/05/26 07:32:26;;;;;;;20.15;3.97;;;13.20;70.20;;;;;;5054986;28;20039;-70
2023/05/26 07:34:52;;;;;;;21.00;3.58;;;13.60;71.50;;;;;;5051672;28;20029;-70
2023/05/26 07:37:17;;;;;;;19.33;3.20;;;13.70;69.00;;;;;;5050128;28;20031;-70
2023/05/26 07:39:43;;;;;;;20.98;4.22;;;13.70;67.20;;;;;;5052679;28;20021;-70
2023/05/26 07:42:08;;;;;;;21.40;4.35;;;13.80;69.20;;;;;;5051162;28;20025;-71
2023/05/26 07:44:34;;;;;;;19.27;3.85;;;13.90;67.60;;;;;;5066343;28;20110;-71
2023/05/26 07:46:59;;;;;;;22.38;4.28;;;13.80;66.90;;;;;;5050328;28;20021;-71
2023/05/26 07:49:25;;;;;;;20.63;3.50;;;14.00;66.80;;;;;;5050536;28;20124;-72
2023/05/26 07:51:50;;;;;;;13.15;3.45;;;14.20;64.80;;;;;;5049387;28;20036;-71
2023/05/26 07:54:16;;;;;;;17.02;3.47;;;14.00;63.90;;;;;;5051834;28;20505;-71
2023/05/26 07:56:41;;;;;;;17.77;3.58;;;14.00;64.20;;;;;;5048961;28;20021;-71
2023/05/26 07:59:07;;;;;;;18.70;3.88;;;13.70;64.70;;;;;;5055364;28;20017;-70
2023/05/26 08:01:32;;;;;;;16.73;3.92;;;13.90;63.20;;;;;;5052477;28;20469;-71
2023/05/26 08:03:58;;;;;;;22.63;4.05;;;14.40;65.60;;;;;;5050719;28;20521;-72
2023/05/26 08:06:23;;;;;;;17.45;3.83;;;14.30;62.40;;;;;;5041824;28;20120;-71
2023/05/26 08:08:49;;;;;;;15.68;3.42;;;14.40;62.70;;;;;;5053524;28;20041;-71
2023/05/26 08:11:14;;;;;;;18.95;3.78;;;14.30;64.90;;;;;;5053115;28;20037;-70
2023/05/26 08:13:40;;;;;;;12.75;3.50;;;14.70;64.50;;;;;;5045574;28;20416;-71
2023/05/26 08:16:06;;;;;;;17.42;4.07;;;14.80;62.60;;;;;;5051136;28;20108;-71
2023/05/26 08:18:31;;;;;;;16.05;3.45;;;15.00;63.10;;;;;;5041980;28;20054;-71
2023/05/26 08:20:57;;;;;;;15.23;4.18;;;15.50;65.10;;;;;;5044091;28;20095;-73
2023/05/26 08:23:22;;;;;;;14.20;3.40;;;15.70;60.40;;;;;;5047490;28;20046;-70
2023/05/26 08:25:48;;;;;;;17.42;3.35;;;15.40;62.00;;;;;;5047682;28;20468;-71
2023/05/26 08:28:13;;;;;;;18.02;3.97;;;15.40;62.40;;;;;;5052787;28;20064;-70
2023/05/26 08:30:40;;;;;;;14.98;3.60;;;15.50;59.50;;;;;;5054628;28;20343;-70
2023/05/26 08:33:05;;;;;;;18.17;3.72;;;15.50;61.30;;;;;;5049568;28;20036;-71
2023/05/26 08:35:31;;;;;;;12.48;3.08;;;15.00;60.40;;;;;;5050844;28;20119;-70
2023/05/26 08:37:56;;;;;;;13.52;3.33;;;14.90;60.10;;;;;;5051874;28;20047;-71
2023/05/26 08:40:22;;;;;;;14.13;3.40;;;15.10;60.60;;;;;;5059627;28;20107;-71
2023/05/26 08:42:54;;;;;;;16.60;3.60;;;15.00;61.60;;;;;;5049801;28;20552;-70
2023/05/26 08:45:20;;;;;;;15.82;3.58;;;15.30;60.80;;;;;;5047243;28;20472;-70
2023/05/26 08:47:47;;;;;;;19.48;3.67;;;15.00;61.50;;;;;;5048766;28;20033;-71
2023/05/26 08:50:15;;;;;;;16.30;3.28;;;15.40;61.70;;;;;;5047458;28;20525;-70
2023/05/26 08:52:41;;;;;;;14.77;3.75;;;15.60;59.10;;;;;;5040649;28;20025;-70
2023/05/26 08:55:08;;;;;;;15.57;3.47;;;15.70;59.50;;;;;;5044533;28;20034;-71
2023/05/26 08:57:34;;;;;;;15.07;3.97;;;16.10;59.50;;;;;;5049039;28;20631;-71
2023/05/26 09:00:01;;;;;;;17.63;3.47;;;16.10;57.50;;;;;;5062078;28;20040;-70
2023/05/26 09:02:27;;;;;;;17.75;3.78;;;16.10;58.00;;;;;;5059111;28;20051;-71
2023/05/26 09:04:52;;;;;;;14.93;3.70;;;16.50;57.10;;;;;;5054806;28;20025;-71
2023/05/26 09:07:18;;;;;;;17.88;4.07;;;16.80;59.00;;;;;;5050579;28;20020;-71
2023/05/26 09:09:46;;;;;;;13.10;3.80;;;16.50;55.70;;;;;;5042350;28;20201;-71
2023/05/26 09:12:12;;;;;;;12.55;3.60;;;15.90;56.70;;;;;;5050006;28;20052;-70
2023/05/26 09:14:39;;;;;;;19.50;3.28;;;16.10;58.40;;;;;;5047112;28;20020;-71
2023/05/26 09:17:05;;;;;;;14.65;2.95;;;17.10;57.80;;;;;;5051413;28;20036;-70
2023/05/26 09:19:33;;;;;;;17.15;3.88;;;17.30;56.80;;;;;;5045204;28;20033;-70
2023/05/26 09:22:05;;;;;;;12.88;3.38;;;16.30;55.50;;;;;;5041540;28;20025;-71
2023/05/26 09:24:47;;;;;;;14.32;3.10;;;17.10;56.70;;;;;;5049528;28;20033;-70
2023/05/26 09:27:22;;;;;;;17.67;3.35;;;17.50;52.40;;;;;;5050394;28;20469;-70
2023/05/26 09:30:00;;;;;;;17.67;3.63;;;16.40;54.50;;;;;;5047788;28;20594;-70
2023/05/26 09:32:26;;;;;;;15.15;3.50;;;15.70;58.30;;;;;;5043088;28;20033;-70
2023/05/26 09:34:51;;;;;;;13.48;3.38;;;15.40;56.70;;;;;;5046510;28;20063;-70
2023/05/26 09:37:17;;;;;;;15.23;3.50;;;15.60;58.30;;;;;;5045078;28;20052;-71
2023/05/26 09:39:43;;;;;;;14.63;3.60;;;15.90;56.40;;;;;;5052652;28;20029;-71
2023/05/26 09:42:09;;;;;;;11.95;3.58;;;16.50;56.90;;;;;;5042882;28;20285;-70
2023/05/26 09:44:35;;;;;;;17.02;3.20;;;16.00;55.50;;;;;;5050352;28;20049;-70
2023/05/26 09:47:01;;;;;;;18.45;3.60;;;16.10;56.10;;;;;;5050995;28;20024;-70
2023/05/26 09:49:26;;;;;;;14.23;2.80;;;16.30;57.00;;;;;;5045326;28;20025;-71
2023/05/26 09:51:52;;;;;;;15.25;3.80;;;16.60;54.20;;;;;;5043799;28;20116;-70
2023/05/26 09:54:17;;;;;;;11.48;2.88;;;16.70;53.10;;;;;;5047309;28;20075;-70
2023/05/26 09:57:01;;;;;;;13.40;3.33;;;16.90;55.80;;;;;;5042308;28;20033;-70
2023/05/26 09:59:37;;;;;;;14.90;3.00;;;16.60;55.00;;;;;;5048350;28;20124;-70
2023/05/26 10:02:21;;;;;;;13.30;3.25;;;16.40;54.90;;;;;;5050079;28;20025;-70
2023/05/26 10:04:49;;;;;;;19.75;3.40;;;17.00;54.50;;;;;;5049785;28;20404;-71
2023/05/26 10:07:19;;;;;;;14.40;3.33;;;17.40;54.40;;;;;;5046352;28;20056;-71
2023/05/26 10:09:55;;;;;;;12.37;3.20;;;18.10;54.00;;;;;;5052578;28;20183;-71
2023/05/26 10:12:30;;;;;;;12.45;3.03;;;18.10;53.80;;;;;;5037122;28;20060;-71
2023/05/26 10:14:56;;;;;;;11.57;3.20;;;18.10;49.50;;;;;;5040565;28;20032;-72
2023/05/26 10:17:22;;;;;;;13.23;3.28;;;18.10;52.50;;;;;;5047508;28;20484;-71
2023/05/26 10:19:48;;;;;;;12.05;3.25;;;18.20;52.20;;;;;;5049802;28;20120;-71
2023/05/26 10:22:23;;;;;;;14.27;3.75;;;18.10;52.40;;;;;;5045577;28;20036;-70
2023/05/26 10:24:57;;;;;;;12.98;3.45;;;17.50;53.50;;;;;;5053614;28;20508;-72
2023/05/26 10:28:09;;;;;;;14.10;3.70;;;17.50;54.70;;;;;;5044739;28;20440;-71
2023/05/26 10:30:36;;;;;;;11.82;2.88;;;17.80;51.40;;;;;;5038049;28;20040;-71
2023/05/26 10:33:15;;;;;;;12.57;3.38;;;18.00;48.70;;;;;;5045271;28;20028;-71
2023/05/26 10:35:54;;;;;;;14.55;3.53;;;18.10;52.80;;;;;;5041339;28;20088;-71
2023/05/26 10:38:25;;;;;;;12.55;3.10;;;18.00;53.70;;;;;;5045636;28;20396;-71
2023/05/26 10:40:51;;;;;;;11.85;3.70;;;18.40;49.70;;;;;;5050009;28;20047;-71
2023/05/26 10:43:24;;;;;;;14.57;3.00;;;18.50;50.50;;;;;;5047257;28;20051;-70
2023/05/26 10:46:01;;;;;;;13.82;3.50;;;18.90;48.70;;;;;;5050876;28;20040;-70
2023/05/26 10:48:40;;;;;;;14.55;3.67;;;18.80;50.90;;;;;;5051753;28;20033;-71
2023/05/26 10:51:09;;;;;;;16.48;3.42;;;18.10;50.60;;;;;;5049587;28;20050;-71
2023/05/26 10:53:47;;;;;;;17.55;4.00;;;17.60;51.10;;;;;;5047482;28;20033;-71
2023/05/26 10:56:14;;;;;;;9.77;3.53;;;18.10;52.00;;;;;;5054915;28;20041;-71
2023/05/26 10:58:47;;;;;;;13.10;3.22;;;18.80;49.10;;;;;;5053535;28;20033;-70
2023/05/26 11:01:19;;;;;;;11.63;3.63;;;18.10;48.70;;;;;;5053796;28;20512;-71
2023/05/26 11:04:12;;;;;;;10.73;3.50;;;18.20;51.30;;;;;;5049783;28;20025;-71
2023/05/26 11:06:59;;;;;;;12.85;3.67;;;18.30;49.70;;;;;;5051771;28;20036;-71
2023/05/26 11:09:27;;;;;;;16.98;4.03;;;18.80;50.30;;;;;;5049762;28;20025;-70
2023/05/26 11:11:57;;;;;;;13.38;3.58;;;19.00;49.90;;;;;;5051840;28;20541;-71
2023/05/26 11:14:29;;;;;;;14.10;2.97;;;19.10;50.30;;;;;;5046916;28;20104;-70
2023/05/26 11:16:57;;;;;;;12.50;3.65;;;18.10;48.50;;;;;;5060823;28;20565;-70
2023/05/26 11:19:31;;;;;;;12.13;3.05;;;17.90;49.90;;;;;;5045345;28;20025;-70
2023/05/26 11:21:58;;;;;;;12.57;3.47;;;18.50;48.50;;;;;;5041576;28;20028;-71
2023/05/26 11:24:28;;;;;;;15.40;3.45;;;18.30;48.90;;;;;;5049033;28;20025;-70
2023/05/26 11:26:53;;;;;;;13.25;3.35;;;18.20;49.50;;;;;;5049820;28;20048;-70
2023/05/26 11:29:22;;;;;;;10.18;3.15;;;18.80;49.40;;;;;;5043218;28;20025;-70
2023/05/26 11:31:49;;;;;;;12.43;3.63;;;18.90;47.90;;;;;;5050167;28;20628;-71
2023/05/26 11:34:15;;;;;;;12.82;3.03;;;19.50;47.30;;;;;;5041940;28;20377;-70
2023/05/26 11:36:45;;;;;;;14.02;4.05;;;19.10;47.40;;;;;;5051003;28;20033;-71
2023/05/26 11:39:12;;;;;;;12.50;3.78;;;19.60;49.10;;;;;;5052282;28;20025;-70
2023/05/26 11:41:38;;;;;;;15.80;4.05;;;19.40;49.30;;;;;;5053255;28;20116;-70
2023/05/26 11:44:09;;;;;;;12.77;3.47;;;19.20;49.60;;;;;;5047692;28;20462;-69
2023/05/26 11:46:40;;;;;;;9.60;2.40;;;18.60;48.90;;;;;;5049094;28;20424;-71
2023/05/26 11:49:16;;;;;;;12.77;3.65;;;18.50;49.40;;;;;;5054292;28;20072;-71
2023/05/26 11:51:50;;;;;;;17.00;4.03;;;19.90;47.40;;;;;;5050627;28;20037;-70
2023/05/26 11:54:17;;;;;;;10.93;3.08;;;19.80;47.50;;;;;;5041471;28;20148;-70
2023/05/26 11:56:44;;;;;;;9.43;3.40;;;19.00;47.30;;;;;;5048839;28;20035;-70
2023/05/26 11:59:15;;;;;;;13.32;3.58;;;19.20;48.90;;;;;;5047579;28;20029;-70
2023/05/26 12:01:40;;;;;;;15.50;3.40;;;19.30;46.60;;;;;;5049596;28;20112;-70
2023/05/26 12:04:06;;;;;;;10.77;3.35;;;20.00;47.00;;;;;;5049342;28;20369;-71
2023/05/26 12:06:37;;;;;;;10.95;3.53;;;19.50;46.80;;;;;;5053957;28;20741;-70
2023/05/26 12:09:09;;;;;;;13.27;3.90;;;19.50;48.60;;;;;;5050571;28;20028;-70
2023/05/26 12:11:42;;;;;;;14.48;4.05;;;19.50;48.00;;;;;;5040655;28;20025;-71
2023/05/26 12:14:12;;;;;;;15.45;5.45;;;19.00;48.30;;;;;;5045416;28;20037;-70
2023/05/26 12:16:43;;;;;;;15.57;4.20;;;19.00;49.20;;;;;;5050744;28;20523;-71
2023/05/26 12:19:13;;;;;;;13.70;4.63;;;19.00;48.80;;;;;;5048948;28;20284;-70
2023/05/26 12:21:49;;;;;;;15.75;4.25;;;19.00;48.80;;;;;;5051156;28;20112;-70
2023/05/26 12:24:29;;;;;;;13.90;5.10;;;19.40;47.20;;;;;;5053198;28;20017;-70
2023/05/26 12:26:54;;;;;;;16.95;5.00;;;20.30;47.10;;;;;;5054652;28;20163;-71
2023/05/26 12:29:20;;;;;;;13.82;4.75;;;21.30;47.70;;;;;;5041906;28;20063;-71
2023/05/26 12:31:52;;;;;;;13.30;4.75;;;20.40;46.00;;;;;;5050251;28;20505;-70
2023/05/26 12:34:23;;;;;;;14.48;4.75;;;20.40;47.60;;;;;;5049503;28;20017;-70
2023/05/26 12:36:50;;;;;;;18.58;5.20;;;21.00;48.20;;;;;;5049519;28;20037;-71
2023/05/26 12:39:17;;;;;;;14.25;4.80;;;21.70;45.80;;;;;;5053761;28;20414;-71
2023/05/26 12:41:45;;;;;;;11.65;4.43;;;21.00;44.30;;;;;;5056455;28;20048;-70
2023/05/26 12:44:14;;;;;;;12.82;3.90;;;20.00;46.40;;;;;;5050069;28;20334;-70
2023/05/26 12:46:41;;;;;;;11.70;4.00;;;19.60;47.40;;;;;;5048101;28;20025;-70